Hundvaag 1 weather for Jan 2010
Month no. 271
Obs.
Da.
Temp. Dew Point Precip. Wind
Speed
Wind gusts Cloud cover Press. Humidity Wind dir. Sunny OPT
01.01.2010 -1,6 -4,9 0,0 1,9 1,9 0 1007,0 78,0 202,5   52,5 %
02.01.2010 -4,5 -11,9 0,0 5,8 5,8 10 1022,2 56,0 337,5 1 72,5 %
03.01.2010 -5,1 -9,9 0,0 1,9 1,9 1 1026,3 69,0 292,5   52,5 %
04.01.2010 -1,8 -4,3 0,0 3,7 3,7 1 1014,8 83,0 135,0   52,5 %
05.01.2010 -2,7 -6,9 0,0 5,6 6,1 10 1007,7 73,0 112,5 1 72,5 %
06.01.2010 -5,6 -14,6 0,0 5,6 5,6 10 1014,8 49,0 0,0 1 72,5 %
07.01.2010 -5,2 -12,2 0,0 0,0 0,0 9 1017,5 58,0 270,0 1 72,5 %
08.01.2010 -6,9 -12,6 0,0 13,0 13,0 10 1030,0 64,0 67,5 1 67,5 %
09.01.2010 -5,8 -10,9 0,0 3,7 3,7 10 1041,2 67,0 270,0 1 72,5 %
10.01.2010 -0,9 -8,6 0,0 7,4 7,4 10 1040,9 56,0 0,0 1 72,5 %
11.01.2010 -1,9 -6,7 0,0 0,0 0,0 10 1035,4 70,0 112,5 1 77,5 %
12.01.2010 -1,1 -3,9 0,0 0,0 0,0 10 1029,0 81,0 67,5 1 77,5 %
13.01.2010 0,3 -2,1 0,0 1,9 2,6 8 1020,9 84,0 247,5 1 75,0 %
14.01.2010 1,1 -4,3 0,0 4,0 4,0 10 1015,8 67,0 135,0 1 77,5 %
15.01.2010 0,2 -4,6 0,0 14,8 14,8 0 1024,3 70,0 135,0   45,0 %
16.01.2010 1,2 -3,5 0,0 99,9 100,2 4 1025,3 71,0 135,0 1 40,0 %
17.01.2010 1,3 -4,8 0,0 24,1 24,1 1 1014,8 64,0 112,5   42,5 %
18.01.2010 0,9 -5,6 0,0 13,0 13,0 1 1022,6 62,0 67,5   50,0 %
19.01.2010 3,0 -2,1 0,0 2,1 0,0 1 1030,0 69,0 247,5   60,0 %
20.01.2010 -0,6 -5,4 0,0 1,9 1,9 2 1030,0 70,0 180,0 1 57,5 %
21.01.2010 0,3 -6,1 0,0 3,7 4,0 2 1031,4 62,0 90,0   57,5 %
22.01.2010 -0,9 -7,5 0,0 18,5 18,5 10 1030,7 61,0 90,0 1 65,0 %
23.01.2010 0,7 -5,3 0,0 7,4 7,4 0 1033,1 64,0 90,0   50,0 %
24.01.2010 1,1 -7,4 0,0 11,1 11,1 2 1035,4 53,0 135,0 1 52,5 %
25.01.2010 -1,9 -7,8 0,0 0,0 0,0 2 1041,9 64,0 112,5   57,5 %
26.01.2010 -0,9 -4,3 0,0 1,9 1,9 1 1045,9 78,0 112,5   55,0 %
27.01.2010 4,1 2,3 6,2 11,1 11,1 0 1019,9 88,0 135,0 1 45,0 %
28.01.2010 0,7 -2,2 7,5 99,9 99,9 8 1002,3 81,0 112,5 1 45,0 %
29.01.2010 -1,6 -3,9 0,0 3,7 3,7 8 989,1 84,0 0,0 1 70,0 %
30.01.2010 -2,9 -6,9 0,0 18,5 19,0 0 991,8 74,0 135,0   37,5 %
31.01.2010 -0,5 -3,1 8,8 14,8 14,8 1 990,4 83,0 157,5   40,0 %
Avrg/Sum -1,2 -6,2 22,5 12,9 12,9 4,9 1022,0 69,5 138,6 18 59,3 %